Satellite Precipitation Estimates (TXUS20 KWBC)
Issued by NWS

Current Version | Previous Version | Text Only | Print | Product List | Glossary On
Versions: 1 2
SPTD31 TTPP 271326
TTPP 271321Z 00000KT 4000 -SHRA VCSH SCT014 SCT036 26/25 Q1013 NOSIG
RMK CB TOP-SE, JP S-W-N= is the U.S. government's official web portal to all federal, state and local government web resources and services.